sensor_id;sensor_type;location;lat;lon;timestamp;pressure;altitude;pressure_sealevel;temperature;humidity
74163;BME280;62515;52.758;5.076;2023-04-24T00:01:19;99832.38;;;9.60;100.00
74163;BME280;62515;52.758;5.076;2023-04-24T00:03:47;99834.78;;;9.63;100.00
74163;BME280;62515;52.758;5.076;2023-04-24T00:06:14;99834.78;;;9.63;100.00
74163;BME280;62515;52.758;5.076;2023-04-24T00:08:41;99833.97;;;9.62;100.00
74163;BME280;62515;52.758;5.076;2023-04-24T00:11:08;99829.88;;;9.58;100.00
74163;BME280;62515;52.758;5.076;2023-04-24T00:13:35;99829.59;;;9.61;100.00
74163;BME280;62515;52.758;5.076;2023-04-24T00:16:02;99830.72;;;9.59;100.00
74163;BME280;62515;52.758;5.076;2023-04-24T00:18:29;99825.50;;;9.57;100.00
74163;BME280;62515;52.758;5.076;2023-04-24T00:20:57;99831.53;;;9.59;100.00
74163;BME280;62515;52.758;5.076;2023-04-24T00:23:24;99822.84;;;9.57;100.00
74163;BME280;62515;52.758;5.076;2023-04-24T00:25:51;99823.81;;;9.56;100.00
74163;BME280;62515;52.758;5.076;2023-04-24T00:28:18;99828.06;;;9.59;100.00
74163;BME280;62515;52.758;5.076;2023-04-24T00:30:44;99828.06;;;9.59;100.00
74163;BME280;62515;52.758;5.076;2023-04-24T00:33:11;99826.47;;;9.56;100.00
74163;BME280;62515;52.758;5.076;2023-04-24T00:35:38;99831.69;;;9.58;100.00
74163;BME280;62515;52.758;5.076;2023-04-24T00:38:06;99830.81;;;9.57;100.00
74163;BME280;62515;52.758;5.076;2023-04-24T00:40:33;99827.91;;;9.60;100.00
74163;BME280;62515;52.758;5.076;2023-04-24T00:43:00;99826.94;;;9.61;100.00
74163;BME280;62515;52.758;5.076;2023-04-24T00:45:27;99827.81;;;9.62;100.00
74163;BME280;62515;52.758;5.076;2023-04-24T00:47:54;99827.53;;;9.65;100.00
74163;BME280;62515;52.758;5.076;2023-04-24T00:50:21;99830.31;;;9.63;100.00
74163;BME280;62515;52.758;5.076;2023-04-24T00:52:49;99834.78;;;9.63;100.00
74163;BME280;62515;52.758;5.076;2023-04-24T00:55:18;99835.63;;;9.63;100.00
74163;BME280;62515;52.758;5.076;2023-04-24T00:57:45;99826.94;;;9.61;100.00
74163;BME280;62515;52.758;5.076;2023-04-24T01:00:13;99835.63;;;9.63;100.00
74163;BME280;62515;52.758;5.076;2023-04-24T01:02:43;99828.75;;;9.61;100.00
74163;BME280;62515;52.758;5.076;2023-04-24T01:05:11;99837.56;;;9.61;100.00
74163;BME280;62515;52.758;5.076;2023-04-24T01:07:39;99827.53;;;9.65;100.00
74163;BME280;62515;52.758;5.076;2023-04-24T01:10:08;99838.41;;;9.62;100.00
74163;BME280;62515;52.758;5.076;2023-04-24T01:12:36;99831.75;;;9.67;100.00
74163;BME280;62515;52.758;5.076;2023-04-24T01:15:04;99836.22;;;9.67;100.00
74163;BME280;62515;52.758;5.076;2023-04-24T01:17:31;99839.59;;;9.69;100.00
74163;BME280;62515;52.758;5.076;2023-04-24T01:19:58;99836.34;;;9.65;100.00
74163;BME280;62515;52.758;5.076;2023-04-24T01:22:27;99844.69;;;9.61;100.00
74163;BME280;62515;52.758;5.076;2023-04-24T01:24:53;99846.06;;;9.55;100.00
74163;BME280;62515;52.758;5.076;2023-04-24T01:27:20;99840.16;;;9.52;100.00
74163;BME280;62515;52.758;5.076;2023-04-24T01:29:47;99850.44;;;9.45;100.00
74163;BME280;62515;52.758;5.076;2023-04-24T01:32:14;99848.50;;;9.47;100.00
74163;BME280;62515;52.758;5.076;2023-04-24T01:34:42;99839.94;;;9.43;100.00
74163;BME280;62515;52.758;5.076;2023-04-24T01:37:09;99847.19;;;9.41;100.00
74163;BME280;62515;52.758;5.076;2023-04-24T01:39:37;99854.31;;;9.41;100.00
74163;BME280;62515;52.758;5.076;2023-04-24T01:42:05;99850.81;;;9.40;100.00
74163;BME280;62515;52.758;5.076;2023-04-24T01:44:33;99856.00;;;9.42;100.00
74163;BME280;62515;52.758;5.076;2023-04-24T01:47:00;99860.00;;;9.36;100.00
74163;BME280;62515;52.758;5.076;2023-04-24T01:49:29;99860.97;;;9.35;100.00
74163;BME280;62515;52.758;5.076;2023-04-24T01:51:56;99860.25;;;9.33;100.00
74163;BME280;62515;52.758;5.076;2023-04-24T01:54:22;99861.44;;;9.40;100.00
74163;BME280;62515;52.758;5.076;2023-04-24T01:56:50;99863.72;;;9.45;100.00
74163;BME280;62515;52.758;5.076;2023-04-24T01:59:17;99862.63;;;9.48;100.00
74163;BME280;62515;52.758;5.076;2023-04-24T02:01:45;99861.50;;;9.50;100.00
74163;BME280;62515;52.758;5.076;2023-04-24T02:04:12;99862.25;;;9.52;100.00
74163;BME280;62515;52.758;5.076;2023-04-24T02:06:39;99864.06;;;9.52;100.00
74163;BME280;62515;52.758;5.076;2023-04-24T02:09:06;99863.06;;;9.53;100.00
74163;BME280;62515;52.758;5.076;2023-04-24T02:11:33;99866.56;;;9.53;100.00
74163;BME280;62515;52.758;5.076;2023-04-24T02:14:02;99868.53;;;9.51;100.00
74163;BME280;62515;52.758;5.076;2023-04-24T02:16:29;99869.03;;;9.45;100.00
74163;BME280;62515;52.758;5.076;2023-04-24T02:18:56;99869.16;;;9.43;100.00
74163;BME280;62515;52.758;5.076;2023-04-24T02:21:23;99876.66;;;9.38;100.00
74163;BME280;62515;52.758;5.076;2023-04-24T02:23:50;99880.28;;;9.37;100.00
74163;BME280;62515;52.758;5.076;2023-04-24T02:26:17;99890.78;;;9.39;100.00
74163;BME280;62515;52.758;5.076;2023-04-24T02:28:43;99889.59;;;9.32;100.00
74163;BME280;62515;52.758;5.076;2023-04-24T02:31:12;99881.13;;;9.27;100.00
74163;BME280;62515;52.758;5.076;2023-04-24T02:33:40;99887.28;;;9.27;100.00
74163;BME280;62515;52.758;5.076;2023-04-24T02:36:07;99883.94;;;9.25;100.00
74163;BME280;62515;52.758;5.076;2023-04-24T02:38:34;99888.66;;;9.22;100.00
74163;BME280;62515;52.758;5.076;2023-04-24T02:41:00;99884.53;;;9.18;100.00
74163;BME280;62515;52.758;5.076;2023-04-24T02:43:27;99887.19;;;9.18;100.00
74163;BME280;62515;52.758;5.076;2023-04-24T02:45:54;99900.47;;;9.18;100.00
74163;BME280;62515;52.758;5.076;2023-04-24T02:48:22;99890.00;;;9.16;100.00
74163;BME280;62515;52.758;5.076;2023-04-24T02:50:50;99895.31;;;9.16;100.00
74163;BME280;62515;52.758;5.076;2023-04-24T02:53:17;99901.47;;;9.17;100.00
74163;BME280;62515;52.758;5.076;2023-04-24T02:55:44;99903.63;;;9.12;100.00
74163;BME280;62515;52.758;5.076;2023-04-24T02:58:11;99899.16;;;9.12;100.00
74163;BME280;62515;52.758;5.076;2023-04-24T03:00:37;99905.31;;;9.13;100.00
74163;BME280;62515;52.758;5.076;2023-04-24T03:03:04;99903.63;;;9.12;100.00
74163;BME280;62515;52.758;5.076;2023-04-24T03:05:33;99910.63;;;9.13;100.00
74163;BME280;62515;52.758;5.076;2023-04-24T03:08:00;99911.72;;;9.10;100.00
74163;BME280;62515;52.758;5.076;2023-04-24T03:10:26;99910.88;;;9.10;100.00
74163;BME280;62515;52.758;5.076;2023-04-24T03:12:53;99916.44;;;9.07;100.00
74163;BME280;62515;52.758;5.076;2023-04-24T03:15:20;99922.69;;;9.06;100.00
74163;BME280;62515;52.758;5.076;2023-04-24T03:17:47;99928.72;;;9.08;100.00
74163;BME280;62515;52.758;5.076;2023-04-24T03:20:14;99924.41;;;9.07;100.00
74163;BME280;62515;52.758;5.076;2023-04-24T03:22:43;99933.78;;;9.11;100.00
74163;BME280;62515;52.758;5.076;2023-04-24T03:25:10;99934.78;;;9.10;100.00
74163;BME280;62515;52.758;5.076;2023-04-24T03:27:37;99925.09;;;9.09;100.00
74163;BME280;62515;52.758;5.076;2023-04-24T03:30:29;99933.91;;;9.09;100.00
74163;BME280;62515;52.758;5.076;2023-04-24T03:32:58;99933.06;;;9.09;100.00
74163;BME280;62515;52.758;5.076;2023-04-24T03:35:28;99925.09;;;9.09;100.00
74163;BME280;62515;52.758;5.076;2023-04-24T03:38:00;99927.75;;;9.09;100.00
74163;BME280;62515;52.758;5.076;2023-04-24T03:40:39;99921.50;;;9.10;100.00
74163;BME280;62515;52.758;5.076;2023-04-24T03:43:19;99928.00;;;9.06;100.00
74163;BME280;62515;52.758;5.076;2023-04-24T03:45:46;99930.16;;;9.12;100.00
74163;BME280;62515;52.758;5.076;2023-04-24T03:48:14;99930.16;;;9.12;100.00
74163;BME280;62515;52.758;5.076;2023-04-24T03:50:41;99936.44;;;9.11;100.00
74163;BME280;62515;52.758;5.076;2023-04-24T03:53:12;99941.88;;;9.09;100.00
74163;BME280;62515;52.758;5.076;2023-04-24T03:55:40;99940.06;;;9.10;100.00
74163;BME280;62515;52.758;5.076;2023-04-24T03:58:08;99942.47;;;9.13;100.00
74163;BME280;62515;52.758;5.076;2023-04-24T04:00:35;99943.56;;;9.10;100.00
74163;BME280;62515;52.758;5.076;2023-04-24T04:03:22;99939.94;;;9.11;100.00
74163;BME280;62515;52.758;5.076;2023-04-24T04:05:49;99940.78;;;9.12;100.00
74163;BME280;62515;52.758;5.076;2023-04-24T04:08:17;99945.38;;;9.10;100.00
74163;BME280;62515;52.758;5.076;2023-04-24T04:10:44;99949.09;;;9.07;100.00
74163;BME280;62515;52.758;5.076;2023-04-24T04:13:11;99939.34;;;9.08;100.00
74163;BME280;62515;52.758;5.076;2023-04-24T04:15:38;99947.06;;;9.11;100.00
74163;BME280;62515;52.758;5.076;2023-04-24T04:18:05;99949.59;;;9.12;100.00
74163;BME280;62515;52.758;5.076;2023-04-24T04:20:32;99951.66;;;9.09;100.00
74163;BME280;62515;52.758;5.076;2023-04-24T04:22:59;99951.91;;;9.06;100.00
74163;BME280;62515;52.758;5.076;2023-04-24T04:25:39;99962.03;;;9.12;100.00
74163;BME280;62515;52.758;5.076;2023-04-24T04:28:06;99957.56;;;9.12;100.00
74163;BME280;62515;52.758;5.076;2023-04-24T04:30:32;99964.56;;;9.13;100.00
74163;BME280;62515;52.758;5.076;2023-04-24T04:33:02;99960.31;;;9.11;100.00
74163;BME280;62515;52.758;5.076;2023-04-24T04:35:30;99970.59;;;9.15;100.00
74163;BME280;62515;52.758;5.076;2023-04-24T04:37:58;99970.94;;;9.11;100.00
74163;BME280;62515;52.758;5.076;2023-04-24T04:40:43;99978.66;;;9.14;100.00
74163;BME280;62515;52.758;5.076;2023-04-24T04:43:11;99978.19;;;9.09;100.00
74163;BME280;62515;52.758;5.076;2023-04-24T04:45:43;99994.72;;;9.12;100.00
74163;BME280;62515;52.758;5.076;2023-04-24T04:48:28;99998.56;;;9.08;100.00
74163;BME280;62515;52.758;5.076;2023-04-24T04:50:58;99997.63;;;9.09;100.00
74163;BME280;62515;52.758;5.076;2023-04-24T04:53:27;99990.59;;;9.08;100.00
74163;BME280;62515;52.758;5.076;2023-04-24T04:55:55;100000.75;;;9.03;100.00
74163;BME280;62515;52.758;5.076;2023-04-24T04:58:26;100001.69;;;8.91;100.00
74163;BME280;62515;52.758;5.076;2023-04-24T05:00:57;100012.19;;;8.81;100.00
74163;BME280;62515;52.758;5.076;2023-04-24T05:03:35;100017.47;;;8.81;100.00
74163;BME280;62515;52.758;5.076;2023-04-24T05:06:06;100017.47;;;8.81;100.00
74163;BME280;62515;52.758;5.076;2023-04-24T05:08:36;100030.97;;;8.78;100.00
74163;BME280;62515;52.758;5.076;2023-04-24T05:11:07;100022.19;;;8.78;100.00
74163;BME280;62515;52.758;5.076;2023-04-24T05:13:35;100034.13;;;8.72;100.00
74163;BME280;62515;52.758;5.076;2023-04-24T05:16:21;100050.03;;;8.72;100.00
74163;BME280;62515;52.758;5.076;2023-04-24T05:18:49;100060.03;;;8.69;100.00
74163;BME280;62515;52.758;5.076;2023-04-24T05:21:20;100066.38;;;8.55;100.00
74163;BME280;62515;52.758;5.076;2023-04-24T05:23:50;100067.59;;;8.51;100.00
74163;BME280;62515;52.758;5.076;2023-04-24T05:26:29;100078.13;;;8.40;100.00
74163;BME280;62515;52.758;5.076;2023-04-24T05:28:57;100086.13;;;8.27;100.00
74163;BME280;62515;52.758;5.076;2023-04-24T05:31:24;100089.09;;;8.23;100.00
74163;BME280;62515;52.758;5.076;2023-04-24T05:33:51;100090.41;;;8.17;100.00
74163;BME280;62515;52.758;5.076;2023-04-24T05:36:18;100095.72;;;8.17;100.00
74163;BME280;62515;52.758;5.076;2023-04-24T05:38:45;100083.63;;;8.13;100.00
74163;BME280;62515;52.758;5.076;2023-04-24T05:41:12;100101.63;;;8.21;100.00
74163;BME280;62515;52.758;5.076;2023-04-24T05:43:40;100112.69;;;8.15;100.00
74163;BME280;62515;52.758;5.076;2023-04-24T05:46:07;100095.09;;;8.14;100.00
74163;BME280;62515;52.758;5.076;2023-04-24T05:48:34;100113.41;;;8.17;100.00
74163;BME280;62515;52.758;5.076;2023-04-24T05:51:03;100126.88;;;8.14;100.00
74163;BME280;62515;52.758;5.076;2023-04-24T05:53:31;100127.56;;;8.05;100.00
74163;BME280;62515;52.758;5.076;2023-04-24T05:55:58;100137.22;;;8.06;100.00
74163;BME280;62515;52.758;5.076;2023-04-24T05:58:25;100141.53;;;8.07;100.00
74163;BME280;62515;52.758;5.076;2023-04-24T06:00:53;100146.63;;;8.10;100.00
74163;BME280;62515;52.758;5.076;2023-04-24T06:03:20;100132.63;;;8.08;100.00
74163;BME280;62515;52.758;5.076;2023-04-24T06:05:49;100139.91;;;8.17;100.00
74163;BME280;62515;52.758;5.076;2023-04-24T06:08:16;100152.72;;;8.23;100.00
74163;BME280;62515;52.758;5.076;2023-04-24T06:10:45;100143.66;;;8.14;100.00
74163;BME280;62515;52.758;5.076;2023-04-24T06:13:12;100162.09;;;8.28;100.00
74163;BME280;62515;52.758;5.076;2023-04-24T06:15:55;100173.09;;;8.35;100.00
74163;BME280;62515;52.758;5.076;2023-04-24T06:18:33;100168.00;;;8.32;100.00
74163;BME280;62515;52.758;5.076;2023-04-24T06:20:59;100176.78;;;8.32;100.00
74163;BME280;62515;52.758;5.076;2023-04-24T06:23:26;100189.00;;;8.35;100.00
74163;BME280;62515;52.758;5.076;2023-04-24T06:25:53;100181.03;;;8.35;100.00
74163;BME280;62515;52.758;5.076;2023-04-24T06:28:20;100200.44;;;8.35;100.00
74163;BME280;62515;52.758;5.076;2023-04-24T06:30:47;100194.53;;;8.32;100.00
74163;BME280;62515;52.758;5.076;2023-04-24T06:33:15;100216.13;;;8.38;100.00
74163;BME280;62515;52.758;5.076;2023-04-24T06:35:47;100221.31;;;8.40;100.00
74163;BME280;62515;52.758;5.076;2023-04-24T06:38:14;100216.75;;;8.42;100.00
74163;BME280;62515;52.758;5.076;2023-04-24T06:40:41;100212.06;;;8.46;100.00
74163;BME280;62515;52.758;5.076;2023-04-24T06:43:08;100227.63;;;8.50;100.00
74163;BME280;62515;52.758;5.076;2023-04-24T06:45:35;100236.09;;;8.55;100.00
74163;BME280;62515;52.758;5.076;2023-04-24T06:48:02;100243.84;;;8.58;100.00
74163;BME280;62515;52.758;5.076;2023-04-24T06:50:31;100236.00;;;8.57;100.00
74163;BME280;62515;52.758;5.076;2023-04-24T06:52:57;100243.22;;;8.55;100.00
74163;BME280;62515;52.758;5.076;2023-04-24T06:55:24;100251.81;;;8.58;100.00
74163;BME280;62515;52.758;5.076;2023-04-24T06:57:51;100253.16;;;8.64;100.00
74163;BME280;62515;52.758;5.076;2023-04-24T07:00:18;100258.69;;;8.61;100.00
74163;BME280;62515;52.758;5.076;2023-04-24T07:02:44;100269.09;;;8.64;100.00
74163;BME280;62515;52.758;5.076;2023-04-24T07:05:11;100260.78;;;8.68;100.00
74163;BME280;62515;52.758;5.076;2023-04-24T07:07:39;100264.81;;;8.74;100.00
74163;BME280;62515;52.758;5.076;2023-04-24T07:10:07;100269.25;;;8.73;100.00
74163;BME280;62515;52.758;5.076;2023-04-24T07:12:34;100269.25;;;8.73;100.00
74163;BME280;62515;52.758;5.076;2023-04-24T07:15:01;100269.47;;;8.70;100.00
74163;BME280;62515;52.758;5.076;2023-04-24T07:17:28;100287.06;;;8.71;100.00
74163;BME280;62515;52.758;5.076;2023-04-24T07:19:55;100287.06;;;8.71;100.00
74163;BME280;62515;52.758;5.076;2023-04-24T07:22:21;100293.84;;;8.75;100.00
74163;BME280;62515;52.758;5.076;2023-04-24T07:24:49;100288.41;;;8.89;100.00
74163;BME280;62515;52.758;5.076;2023-04-24T07:27:16;100303.19;;;9.05;100.00
74163;BME280;62515;52.758;5.076;2023-04-24T07:29:43;100305.38;;;9.11;100.00
74163;BME280;62515;52.758;5.076;2023-04-24T07:32:11;100319.19;;;9.16;100.00
74163;BME280;62515;52.758;5.076;2023-04-24T07:34:37;100320.69;;;9.07;100.00
74163;BME280;62515;52.758;5.076;2023-04-24T07:37:04;100316.91;;;8.99;100.00
74163;BME280;62515;52.758;5.076;2023-04-24T07:39:31;100319.91;;;8.94;100.00
74163;BME280;62515;52.758;5.076;2023-04-24T07:41:59;100324.19;;;8.84;100.00
74163;BME280;62515;52.758;5.076;2023-04-24T07:44:26;100332.25;;;8.82;100.00
74163;BME280;62515;52.758;5.076;2023-04-24T07:46:53;100344.78;;;8.80;100.00
74163;BME280;62515;52.758;5.076;2023-04-24T07:49:20;100350.78;;;8.59;100.00
74163;BME280;62515;52.758;5.076;2023-04-24T07:51:47;100362.34;;;8.32;100.00
74163;BME280;62515;52.758;5.076;2023-04-24T07:54:14;100366.25;;;8.27;100.00
74163;BME280;62515;52.758;5.076;2023-04-24T07:56:41;100362.53;;;8.17;100.00
74163;BME280;62515;52.758;5.076;2023-04-24T07:59:09;100380.59;;;8.12;100.00
74163;BME280;62515;52.758;5.076;2023-04-24T08:01:36;100384.19;;;8.11;100.00
74163;BME280;62515;52.758;5.076;2023-04-24T08:04:03;100379.38;;;8.03;100.00
74163;BME280;62515;52.758;5.076;2023-04-24T08:06:31;100397.84;;;8.05;100.00
74163;BME280;62515;52.758;5.076;2023-04-24T08:08:58;100392.56;;;8.05;100.00
74163;BME280;62515;52.758;5.076;2023-04-24T08:11:26;100387.03;;;8.08;100.00
74163;BME280;62515;52.758;5.076;2023-04-24T08:13:53;100405.38;;;8.11;100.00
74163;BME280;62515;52.758;5.076;2023-04-24T08:16:21;100406.75;;;8.16;100.00
74163;BME280;62515;52.758;5.076;2023-04-24T08:18:48;100398.94;;;8.27;100.00
74163;BME280;62515;52.758;5.076;2023-04-24T08:21:15;100407.34;;;8.34;100.00
74163;BME280;62515;52.758;5.076;2023-04-24T08:23:42;100414.22;;;8.36;100.00
74163;BME280;62515;52.758;5.076;2023-04-24T08:26:09;100410.19;;;8.44;100.00
74163;BME280;62515;52.758;5.076;2023-04-24T08:28:36;100421.66;;;8.44;100.00
74163;BME280;62515;52.758;5.076;2023-04-24T08:31:03;100423.59;;;8.42;100.00
74163;BME280;62515;52.758;5.076;2023-04-24T08:33:31;100422.72;;;8.42;100.00
74163;BME280;62515;52.758;5.076;2023-04-24T08:35:58;100438.84;;;8.38;100.00
74163;BME280;62515;52.758;5.076;2023-04-24T08:38:25;100440.66;;;8.38;100.00
74163;BME280;62515;52.758;5.076;2023-04-24T08:40:52;100446.47;;;8.43;100.00
74163;BME280;62515;52.758;5.076;2023-04-24T08:43:21;100458.56;;;8.47;100.00
74163;BME280;62515;52.758;5.076;2023-04-24T08:45:48;100449.88;;;8.45;100.00
74163;BME280;62515;52.758;5.076;2023-04-24T08:48:16;100458.34;;;8.50;100.00
74163;BME280;62515;52.758;5.076;2023-04-24T08:50:58;100451.47;;;8.60;100.00
74163;BME280;62515;52.758;5.076;2023-04-24T08:53:26;100460.25;;;8.73;100.00
74163;BME280;62515;52.758;5.076;2023-04-24T08:55:54;100459.41;;;8.85;100.00
74163;BME280;62515;52.758;5.076;2023-04-24T08:58:22;100462.59;;;8.90;100.00
74163;BME280;62515;52.758;5.076;2023-04-24T09:00:52;100463.53;;;8.89;100.00
74163;BME280;62515;52.758;5.076;2023-04-24T09:03:21;100467.47;;;8.84;100.00
74163;BME280;62515;52.758;5.076;2023-04-24T09:05:49;100468.84;;;8.89;100.00
74163;BME280;62515;52.758;5.076;2023-04-24T09:08:18;100475.31;;;8.85;100.00
74163;BME280;62515;52.758;5.076;2023-04-24T09:10:45;100489.31;;;8.75;100.00
74163;BME280;62515;52.758;5.076;2023-04-24T09:13:17;100487.94;;;8.94;100.00
74163;BME280;62515;52.758;5.076;2023-04-24T09:15:45;100488.75;;;9.08;100.00
74163;BME280;62515;52.758;5.076;2023-04-24T09:18:12;100496.88;;;9.30;100.00
74163;BME280;62515;52.758;5.076;2023-04-24T09:23:39;100502.59;;;9.36;100.00
74163;BME280;62515;52.758;5.076;2023-04-24T09:26:06;100509.91;;;9.09;100.00
74163;BME280;62515;52.758;5.076;2023-04-24T09:28:36;100508.19;;;9.08;100.00
74163;BME280;62515;52.758;5.076;2023-04-24T09:31:05;100516.38;;;8.92;100.00
74163;BME280;62515;52.758;5.076;2023-04-24T09:33:33;100511.94;;;9.06;100.00
74163;BME280;62515;52.758;5.076;2023-04-24T09:36:00;100514.75;;;9.28;100.00
74163;BME280;62515;52.758;5.076;2023-04-24T09:38:31;100521.97;;;9.38;100.00
74163;BME280;62515;52.758;5.076;2023-04-24T09:41:01;100511.94;;;9.55;100.00
74163;BME280;62515;52.758;5.076;2023-04-24T09:43:28;100516.56;;;9.64;100.00
74163;BME280;62515;52.758;5.076;2023-04-24T09:45:56;100522.16;;;9.48;100.00
74163;BME280;62515;52.758;5.076;2023-04-24T09:48:34;100526.06;;;9.55;100.00
74163;BME280;62515;52.758;5.076;2023-04-24T09:51:02;100527.22;;;9.51;100.00
74163;BME280;62515;52.758;5.076;2023-04-24T09:53:30;100526.16;;;9.54;100.00
74163;BME280;62515;52.758;5.076;2023-04-24T09:56:06;100532.03;;;9.46;100.00
74163;BME280;62515;52.758;5.076;2023-04-24T09:58:34;100540.84;;;9.46;100.00
74163;BME280;62515;52.758;5.076;2023-04-24T10:01:02;100534.50;;;9.24;100.00
74163;BME280;62515;52.758;5.076;2023-04-24T10:03:29;100542.06;;;9.05;100.00
74163;BME280;62515;52.758;5.076;2023-04-24T10:05:58;100550.81;;;8.94;100.00
74163;BME280;62515;52.758;5.076;2023-04-24T10:08:25;100551.63;;;8.94;100.00
74163;BME280;62515;52.758;5.076;2023-04-24T10:10:52;100559.19;;;9.13;100.00
74163;BME280;62515;52.758;5.076;2023-04-24T10:13:21;100558.06;;;9.41;100.00
74163;BME280;62515;52.758;5.076;2023-04-24T10:15:48;100563.25;;;9.55;100.00
74163;BME280;62515;52.758;5.076;2023-04-24T10:18:15;100563.47;;;9.52;100.00
74163;BME280;62515;52.758;5.076;2023-04-24T10:20:42;100571.69;;;9.24;100.00
74163;BME280;62515;52.758;5.076;2023-04-24T10:23:10;100579.13;;;8.93;100.00
74163;BME280;62515;52.758;5.076;2023-04-24T10:25:37;100569.66;;;8.25;100.00
74163;BME280;62515;52.758;5.076;2023-04-24T10:28:05;100580.94;;;7.87;100.00
74163;BME280;62515;52.758;5.076;2023-04-24T10:30:36;100573.75;;;7.89;100.00
74163;BME280;62515;52.758;5.076;2023-04-24T10:33:03;100596.25;;;7.97;100.00
74163;BME280;62515;52.758;5.076;2023-04-24T10:35:31;100591.66;;;8.13;100.00
74163;BME280;62515;52.758;5.076;2023-04-24T10:38:01;100579.16;;;8.15;100.00
74163;BME280;62515;52.758;5.076;2023-04-24T10:40:31;100598.69;;;8.53;100.00
74163;BME280;62515;52.758;5.076;2023-04-24T10:42:58;100603.53;;;8.73;100.00
74163;BME280;62515;52.758;5.076;2023-04-24T10:45:25;100606.53;;;8.94;100.00
74163;BME280;62515;52.758;5.076;2023-04-24T10:47:56;100600.69;;;9.14;100.00
74163;BME280;62515;52.758;5.076;2023-04-24T10:50:25;100594.63;;;9.25;100.00
74163;BME280;62515;52.758;5.076;2023-04-24T10:52:52;100599.47;;;9.43;100.00
74163;BME280;62515;52.758;5.076;2023-04-24T10:55:44;100597.69;;;9.44;100.00
74163;BME280;62515;52.758;5.076;2023-04-24T10:58:11;100605.34;;;9.36;100.00
74163;BME280;62515;52.758;5.076;2023-04-24T11:00:39;100574.63;;;9.44;100.00
74163;BME280;62515;52.758;5.076;2023-04-24T11:03:12;100598.13;;;9.38;100.00
74163;BME280;62515;52.758;5.076;2023-04-24T11:05:50;100596.69;;;10.07;100.00
74163;BME280;62515;52.758;5.076;2023-04-24T11:08:23;100599.41;;;10.76;100.00
74163;BME280;62515;52.758;5.076;2023-04-24T11:10:55;100601.03;;;10.90;100.00
74163;BME280;62515;52.758;5.076;2023-04-24T11:13:23;100607.84;;;11.16;100.00
74163;BME280;62515;52.758;5.076;2023-04-24T11:16:14;100591.63;;;11.41;100.00
74163;BME280;62515;52.758;5.076;2023-04-24T11:18:43;100602.38;;;12.06;100.00
74163;BME280;62515;52.758;5.076;2023-04-24T11:21:11;100594.41;;;11.07;100.00
74163;BME280;62515;52.758;5.076;2023-04-24T11:23:39;100614.25;;;10.68;100.00
74163;BME280;62515;52.758;5.076;2023-04-24T11:26:14;100608.84;;;10.69;100.00
74163;BME280;62515;52.758;5.076;2023-04-24T11:28:47;100614.13;;;10.34;100.00
74163;BME280;62515;52.758;5.076;2023-04-24T11:31:37;100622.53;;;9.92;100.00
74163;BME280;62515;52.758;5.076;2023-04-24T11:34:13;100620.84;;;9.42;100.00
74163;BME280;62515;52.758;5.076;2023-04-24T11:36:42;100645.34;;;9.83;100.00
74163;BME280;62515;52.758;5.076;2023-04-24T11:39:09;100645.47;;;10.06;100.00
74163;BME280;62515;52.758;5.076;2023-04-24T11:41:36;100634.69;;;10.56;100.00
74163;BME280;62515;52.758;5.076;2023-04-24T11:44:06;100632.66;;;10.36;100.00
74163;BME280;62515;52.758;5.076;2023-04-24T11:46:33;100635.56;;;10.44;100.00
74163;BME280;62515;52.758;5.076;2023-04-24T11:49:00;100628.19;;;10.36;100.00
74163;BME280;62515;52.758;5.076;2023-04-24T11:51:28;100650.91;;;10.40;100.00
74163;BME280;62515;52.758;5.076;2023-04-24T11:54:07;100648.41;;;11.09;100.00
74163;BME280;62515;52.758;5.076;2023-04-24T11:56:34;100643.66;;;11.12;100.00
74163;BME280;62515;52.758;5.076;2023-04-24T11:59:03;100662.31;;;11.12;100.00
74163;BME280;62515;52.758;5.076;2023-04-24T12:01:42;100659.00;;;10.39;100.00
74163;BME280;62515;52.758;5.076;2023-04-24T12:04:09;100672.47;;;10.25;100.00
74163;BME280;62515;52.758;5.076;2023-04-24T12:06:38;100672.72;;;9.96;100.00
74163;BME280;62515;52.758;5.076;2023-04-24T12:09:04;100682.22;;;9.88;100.00
74163;BME280;62515;52.758;5.076;2023-04-24T12:11:52;100683.44;;;10.44;100.00
74163;BME280;62515;52.758;5.076;2023-04-24T12:14:19;100670.53;;;10.74;100.00
74163;BME280;62515;52.758;5.076;2023-04-24T12:16:47;100670.91;;;11.16;100.00
74163;BME280;62515;52.758;5.076;2023-04-24T12:19:18;100676.19;;;10.93;100.00
74163;BME280;62515;52.758;5.076;2023-04-24T12:21:59;100678.97;;;10.92;100.00
74163;BME280;62515;52.758;5.076;2023-04-24T12:24:25;100696.59;;;10.58;100.00
74163;BME280;62515;52.758;5.076;2023-04-24T12:26:52;100680.88;;;10.79;100.00
74163;BME280;62515;52.758;5.076;2023-04-24T12:29:19;100672.66;;;10.82;100.00
74163;BME280;62515;52.758;5.076;2023-04-24T12:31:48;100684.94;;;10.72;100.00
74163;BME280;62515;52.758;5.076;2023-04-24T12:34:19;100699.09;;;10.72;100.00
74163;BME280;62515;52.758;5.076;2023-04-24T12:36:47;100693.00;;;10.59;100.00
74163;BME280;62515;52.758;5.076;2023-04-24T12:39:15;100694.78;;;10.82;100.00
74163;BME280;62515;52.758;5.076;2023-04-24T12:41:50;100675.53;;;10.79;100.00
74163;BME280;62515;52.758;5.076;2023-04-24T12:44:17;100705.28;;;10.49;100.00
74163;BME280;62515;52.758;5.076;2023-04-24T12:46:44;100714.59;;;10.06;100.00
74163;BME280;62515;52.758;5.076;2023-04-24T12:49:11;100708.03;;;9.98;100.00
74163;BME280;62515;52.758;5.076;2023-04-24T12:51:37;100729.22;;;9.87;100.00
74163;BME280;62515;52.758;5.076;2023-04-24T12:54:06;100728.25;;;10.01;100.00
74163;BME280;62515;52.758;5.076;2023-04-24T12:56:33;100732.59;;;10.02;100.00
74163;BME280;62515;52.758;5.076;2023-04-24T12:59:00;100723.81;;;9.51;100.00
74163;BME280;62515;52.758;5.076;2023-04-24T13:01:27;100728.03;;;9.54;100.00
74163;BME280;62515;52.758;5.076;2023-04-24T13:03:53;100729.66;;;9.69;100.00